Time;durP1;ratioP1;P1;durP2;ratioP2;P2;SDS_P1;SDS_P2;PMS_P1;PMS_P2;Temp;Humidity;BMP_temperature;BMP_pressure;BME280_temperature;BME280_humidity;BME280_pressure;Samples;Min_cycle;Max_cycle;Signal;HPM_P1;HPM_P2
2022/03/08 00:02:09;;;;;;;9.45;4.90;;;0.70;99.90;;;;;;5114300;22;20405;-82
2022/03/08 00:04:35;;;;;;;11.05;5.10;;;0.70;99.90;;;;;;5147026;22;20081;-82
2022/03/08 00:07:01;;;;;;;9.20;4.80;;;0.70;99.90;;;;;;5110268;22;20058;-81
2022/03/08 00:09:27;;;;;;;9.45;5.28;;;1.20;99.90;;;;;;5107867;22;20047;-82
2022/03/08 00:11:53;;;;;;;10.57;5.18;;;0.70;99.90;;;;;;5124448;22;20055;-82
2022/03/08 00:14:19;;;;;;;11.02;5.13;;;0.90;99.90;;;;;;5128959;22;20067;-82
2022/03/08 00:16:45;;;;;;;11.82;5.60;;;0.70;99.90;;;;;;5174327;22;20048;-82
2022/03/08 00:19:11;;;;;;;10.77;5.57;;;1.50;99.90;;;;;;5114817;22;20071;-82
2022/03/08 00:21:37;;;;;;;9.60;4.53;;;0.70;99.90;;;;;;5116099;22;20054;-82
2022/03/08 00:24:03;;;;;;;10.77;4.60;;;0.70;99.90;;;;;;5108730;22;20193;-82
2022/03/08 00:26:29;;;;;;;11.90;5.40;;;0.70;99.90;;;;;;5110074;22;20110;-82
2022/03/08 00:28:55;;;;;;;13.05;5.40;;;0.70;99.90;;;;;;5108190;22;20059;-82
2022/03/08 00:31:20;;;;;;;11.27;5.20;;;0.70;99.90;;;;;;5095488;22;20044;-82
2022/03/08 00:33:46;;;;;;;10.05;4.78;;;0.60;99.90;;;;;;5108756;22;20043;-82
2022/03/08 00:36:12;;;;;;;11.05;5.70;;;0.60;99.90;;;;;;5116484;22;20119;-81
2022/03/08 00:38:38;;;;;;;11.77;5.40;;;0.60;99.90;;;;;;5112079;22;20082;-82
2022/03/08 00:41:03;;;;;;;10.07;5.18;;;0.50;99.90;;;;;;5122830;22;20050;-82
2022/03/08 00:43:32;;;;;;;9.77;5.43;;;0.50;99.90;;;;;;5117583;22;20125;-82
2022/03/08 00:45:58;;;;;;;10.88;5.07;;;0.50;99.90;;;;;;5119820;22;20680;-82
2022/03/08 00:48:24;;;;;;;9.68;5.05;;;1.10;99.90;;;;;;5119819;22;20043;-82
2022/03/08 00:50:49;;;;;;;10.82;5.00;;;0.40;99.90;;;;;;5111847;22;20044;-82
2022/03/08 00:53:15;;;;;;;10.77;5.53;;;0.40;99.90;;;;;;5111878;22;20050;-82
2022/03/08 00:55:41;;;;;;;11.25;5.60;;;0.40;99.90;;;;;;5116032;22;20030;-82
2022/03/08 00:58:07;;;;;;;11.10;5.18;;;0.40;99.90;;;;;;5127712;27;20107;-82
2022/03/08 01:00:35;;;;;;;13.48;5.53;;;0.30;99.90;;;;;;5122220;22;20059;-82
2022/03/08 01:03:01;;;;;;;12.85;5.80;;;0.40;99.90;;;;;;5118711;22;20048;-82
2022/03/08 01:05:29;;;;;;;10.77;5.70;;;0.40;99.90;;;;;;5136096;22;20551;-81
2022/03/08 01:07:55;;;;;;;11.60;5.55;;;0.30;99.90;;;;;;5104636;28;20035;-81
2022/03/08 01:10:22;;;;;;;11.95;5.00;;;0.30;99.90;;;;;;5118314;22;20058;-82
2022/03/08 01:12:49;;;;;;;11.23;5.28;;;0.50;99.90;;;;;;5103876;28;20047;-82
2022/03/08 01:15:16;;;;;;;10.77;5.40;;;0.20;99.90;;;;;;5135707;22;20402;-82
2022/03/08 01:17:42;;;;;;;10.80;5.47;;;0.20;99.90;;;;;;5104081;28;20036;-81
2022/03/08 01:20:09;;;;;;;11.55;5.47;;;0.20;99.90;;;;;;5118793;22;20062;-82
2022/03/08 01:22:35;;;;;;;12.05;5.68;;;0.10;99.90;;;;;;5120939;22;20047;-82
2022/03/08 01:25:01;;;;;;;11.65;5.85;;;0.10;99.90;;;;;;5123597;27;20584;-82
2022/03/08 01:27:27;;;;;;;13.50;5.57;;;0.10;99.90;;;;;;5118215;22;20039;-82
2022/03/08 01:29:52;;;;;;;13.50;5.60;;;0.10;99.90;;;;;;5120724;22;20123;-82
2022/03/08 01:32:18;;;;;;;12.38;5.68;;;0.00;99.90;;;;;;5125580;22;20047;-81
2022/03/08 01:34:44;;;;;;;11.13;5.47;;;0.00;99.90;;;;;;5123778;27;20128;-82
2022/03/08 01:37:11;;;;;;;11.60;5.88;;;-0.10;99.90;;;;;;5149731;22;20044;-82
2022/03/08 01:39:37;;;;;;;10.50;5.55;;;0.60;99.90;;;;;;5119129;22;20047;-82
2022/03/08 01:42:16;;;;;;;10.13;5.15;;;-0.10;99.90;;;;;;5113436;22;20061;-82
2022/03/08 01:44:44;;;;;;;13.65;6.45;;;-0.10;99.90;;;;;;5125651;22;20025;-82
2022/03/08 01:47:19;;;;;;;11.05;5.72;;;-0.10;99.90;;;;;;5087123;28;20562;-82
2022/03/08 01:49:46;;;;;;;11.65;5.85;;;-0.10;99.90;;;;;;5100700;22;20093;-82
2022/03/08 01:52:12;;;;;;;12.88;6.30;;;0.20;99.90;;;;;;5087065;28;20516;-82
2022/03/08 01:54:38;;;;;;;14.40;6.50;;;-0.20;99.90;;;;;;5122570;22;20043;-82
2022/03/08 01:57:05;;;;;;;15.55;6.93;;;-0.20;99.90;;;;;;5095158;22;20100;-82
2022/03/08 01:59:31;;;;;;;13.93;6.28;;;-0.20;99.90;;;;;;5102725;28;20508;-82
2022/03/08 02:01:56;;;;;;;12.05;6.05;;;-0.20;99.90;;;;;;5110360;22;20379;-82
2022/03/08 02:04:22;;;;;;;11.27;6.35;;;-0.20;99.90;;;;;;5110321;22;20093;-82
2022/03/08 02:06:48;;;;;;;15.80;6.63;;;-0.30;99.90;;;;;;5102565;28;20102;-82
2022/03/08 02:09:14;;;;;;;14.35;6.47;;;-0.30;99.90;;;;;;5109503;22;20059;-82
2022/03/08 02:11:41;;;;;;;12.10;6.32;;;-0.30;99.90;;;;;;5101183;22;20040;-82
2022/03/08 02:14:07;;;;;;;14.80;6.25;;;-0.30;99.90;;;;;;5095742;22;20081;-82
2022/03/08 02:16:33;;;;;;;14.10;6.75;;;-0.30;99.90;;;;;;5127243;22;20062;-82
2022/03/08 02:18:58;;;;;;;14.10;6.63;;;-0.40;99.90;;;;;;5102386;28;20043;-82
2022/03/08 02:21:25;;;;;;;15.85;6.82;;;-0.40;99.90;;;;;;5102790;28;20040;-82
2022/03/08 02:23:52;;;;;;;15.75;7.93;;;-0.40;99.90;;;;;;5102580;28;20043;-82
2022/03/08 02:26:20;;;;;;;14.38;7.45;;;-0.40;99.90;;;;;;5102765;28;20207;-82
2022/03/08 02:28:46;;;;;;;13.90;6.93;;;-0.40;99.90;;;;;;5102674;28;20046;-82
2022/03/08 02:31:11;;;;;;;15.88;7.18;;;-0.40;99.90;;;;;;5119126;28;20039;-82
2022/03/08 02:33:38;;;;;;;13.52;6.72;;;-0.40;99.90;;;;;;5111118;22;20123;-82
2022/03/08 02:36:05;;;;;;;16.35;7.95;;;-0.40;99.90;;;;;;5111547;28;20038;-82
2022/03/08 02:38:31;;;;;;;15.05;7.57;;;-0.40;99.90;;;;;;5110399;28;20040;-82
2022/03/08 02:40:57;;;;;;;15.88;7.53;;;0.00;99.90;;;;;;5121865;28;20042;-82
2022/03/08 02:43:22;;;;;;;15.35;7.68;;;-0.40;99.90;;;;;;5120857;28;20123;-82
2022/03/08 02:45:48;;;;;;;16.40;7.75;;;-0.30;99.90;;;;;;5133619;22;20067;-82
2022/03/08 02:48:14;;;;;;;14.43;7.22;;;-0.30;99.90;;;;;;5126782;27;20039;-82
2022/03/08 02:50:40;;;;;;;14.35;7.15;;;0.30;99.90;;;;;;5127893;27;20054;-82
2022/03/08 02:53:05;;;;;;;15.98;7.53;;;-0.30;99.90;;;;;;5126679;27;20070;-82
2022/03/08 02:55:33;;;;;;;16.88;7.47;;;-0.30;99.90;;;;;;5162848;27;20071;-82
2022/03/08 02:58:00;;;;;;;17.02;6.93;;;-0.30;99.90;;;;;;5109932;27;20091;-82
2022/03/08 03:00:28;;;;;;;16.55;7.38;;;-0.30;99.90;;;;;;5144408;27;20486;-82
2022/03/08 03:02:53;;;;;;;15.65;7.60;;;-0.30;99.90;;;;;;5162922;27;20066;-82
2022/03/08 03:05:20;;;;;;;16.85;7.45;;;-0.30;99.90;;;;;;5126628;27;20045;-82
2022/03/08 03:07:46;;;;;;;14.82;6.93;;;-0.30;99.90;;;;;;5120725;22;20054;-82
2022/03/08 03:10:14;;;;;;;14.23;7.13;;;-0.40;99.90;;;;;;5103402;28;20405;-82
2022/03/08 03:12:39;;;;;;;15.10;7.45;;;-0.30;99.90;;;;;;5119481;28;20123;-82
2022/03/08 03:15:07;;;;;;;18.38;7.93;;;-0.30;99.90;;;;;;5103174;28;20043;-82
2022/03/08 03:17:33;;;;;;;14.55;7.40;;;-0.30;99.90;;;;;;5121621;28;20389;-82
2022/03/08 03:19:59;;;;;;;15.07;7.32;;;-0.30;99.90;;;;;;5103532;28;20083;-82
2022/03/08 03:22:25;;;;;;;16.08;6.97;;;-0.30;99.90;;;;;;5102362;28;20039;-82
2022/03/08 03:24:50;;;;;;;15.93;7.45;;;-0.40;99.90;;;;;;5119614;28;20042;-82
2022/03/08 03:27:16;;;;;;;16.50;6.90;;;-0.40;99.90;;;;;;5102416;28;20040;-82
2022/03/08 03:29:42;;;;;;;14.82;7.00;;;-0.40;99.90;;;;;;5120123;28;20078;-82
2022/03/08 03:32:08;;;;;;;18.55;8.13;;;-0.40;99.90;;;;;;5119287;28;20133;-82
2022/03/08 03:34:33;;;;;;;17.33;7.80;;;-0.40;99.90;;;;;;5102311;28;20032;-82
2022/03/08 03:36:59;;;;;;;16.50;8.20;;;-0.40;99.90;;;;;;5102777;28;20367;-82
2022/03/08 03:39:25;;;;;;;17.75;7.97;;;-0.40;99.90;;;;;;5102770;28;20038;-82
2022/03/08 03:41:50;;;;;;;18.10;7.80;;;-0.40;99.90;;;;;;5121579;28;20494;-82
2022/03/08 03:44:16;;;;;;;17.00;8.55;;;-0.40;99.90;;;;;;5106487;28;20066;-82
2022/03/08 03:46:42;;;;;;;19.05;8.38;;;-0.30;99.90;;;;;;5103218;28;20046;-82
2022/03/08 03:49:08;;;;;;;18.23;8.25;;;-0.40;99.90;;;;;;5103929;28;20040;-82
2022/03/08 03:51:33;;;;;;;19.30;8.05;;;-0.40;99.90;;;;;;5103204;28;20036;-82
2022/03/08 03:53:59;;;;;;;21.35;9.95;;;-0.40;99.90;;;;;;5120909;28;20126;-82
2022/03/08 03:56:24;;;;;;;20.30;8.52;;;-0.20;99.90;;;;;;5121291;28;20044;-82
2022/03/08 03:58:50;;;;;;;18.98;8.40;;;-0.40;99.90;;;;;;5103552;28;20035;-82
2022/03/08 04:01:16;;;;;;;18.40;8.27;;;-0.40;99.90;;;;;;5120692;28;20048;-82
2022/03/08 04:03:42;;;;;;;15.65;7.68;;;-0.50;99.90;;;;;;5121001;28;20091;-82
2022/03/08 04:06:07;;;;;;;20.42;8.57;;;-0.50;99.90;;;;;;5103181;28;20052;-82
2022/03/08 04:08:34;;;;;;;17.02;8.55;;;-0.60;99.90;;;;;;5119291;28;20475;-82
2022/03/08 04:11:00;;;;;;;20.42;9.30;;;-0.60;99.90;;;;;;5120637;28;20104;-82
2022/03/08 04:13:26;;;;;;;17.60;8.73;;;-0.30;99.90;;;;;;5103654;28;20039;-83
2022/03/08 04:15:55;;;;;;;19.50;9.10;;;-0.60;99.90;;;;;;5120284;28;20036;-82
2022/03/08 04:18:21;;;;;;;21.67;9.00;;;-0.70;99.90;;;;;;5125976;28;20397;-82
2022/03/08 04:20:46;;;;;;;20.95;9.70;;;-0.70;99.90;;;;;;5106727;28;20039;-82
2022/03/08 04:23:12;;;;;;;21.27;9.98;;;-0.30;99.90;;;;;;5124971;28;20137;-82
2022/03/08 04:25:38;;;;;;;18.30;8.30;;;-0.70;99.90;;;;;;5106511;28;20035;-82
2022/03/08 04:28:05;;;;;;;20.00;9.63;;;-0.80;99.90;;;;;;5107441;28;20051;-82
2022/03/08 04:30:31;;;;;;;21.60;9.25;;;-0.70;99.90;;;;;;5106406;28;20043;-82
2022/03/08 04:32:57;;;;;;;20.45;9.63;;;-0.70;99.90;;;;;;5107033;28;20039;-82
2022/03/08 04:35:23;;;;;;;18.38;9.23;;;-0.70;99.90;;;;;;5123175;28;20036;-82
2022/03/08 04:37:51;;;;;;;19.15;8.98;;;-0.70;99.90;;;;;;5124226;28;20078;-82
2022/03/08 04:40:17;;;;;;;18.20;8.50;;;-0.70;99.90;;;;;;5124854;28;20122;-82
2022/03/08 04:42:43;;;;;;;19.38;9.15;;;-0.70;99.90;;;;;;5106352;28;20450;-82
2022/03/08 04:45:11;;;;;;;18.25;8.82;;;-0.70;99.90;;;;;;5122937;28;20085;-82
2022/03/08 04:47:37;;;;;;;20.75;9.55;;;-0.70;99.90;;;;;;5123832;28;20044;-82
2022/03/08 04:50:14;;;;;;;19.45;9.15;;;-0.60;99.90;;;;;;5119452;28;20035;-82
2022/03/08 04:52:40;;;;;;;18.08;9.25;;;-0.70;99.90;;;;;;5101667;28;20037;-82
2022/03/08 04:55:07;;;;;;;19.23;9.07;;;-0.60;99.90;;;;;;5124512;28;20126;-82
2022/03/08 04:57:33;;;;;;;19.42;9.27;;;-0.70;99.90;;;;;;5124016;28;20039;-82
2022/03/08 04:59:58;;;;;;;17.05;9.52;;;-0.70;99.90;;;;;;5106985;28;20055;-82
2022/03/08 05:02:24;;;;;;;20.33;9.32;;;-0.70;99.90;;;;;;5124665;28;20031;-82
2022/03/08 05:04:50;;;;;;;19.80;9.00;;;-0.70;99.90;;;;;;5124493;28;20394;-82
2022/03/08 05:07:16;;;;;;;20.95;9.70;;;-0.70;99.90;;;;;;5123841;28;20044;-82
2022/03/08 05:09:41;;;;;;;16.23;9.00;;;-0.70;99.90;;;;;;5124474;28;20039;-82
2022/03/08 05:12:10;;;;;;;19.92;9.63;;;-0.60;99.90;;;;;;5124069;28;20054;-82
2022/03/08 05:14:36;;;;;;;18.38;9.63;;;-0.70;99.90;;;;;;5122240;28;20039;-82
2022/03/08 05:17:02;;;;;;;21.15;9.60;;;-0.80;99.90;;;;;;5122166;28;20073;-82
2022/03/08 05:19:28;;;;;;;22.95;10.52;;;-0.80;99.90;;;;;;5104462;28;20078;-82
2022/03/08 05:21:53;;;;;;;21.27;10.15;;;-0.80;99.90;;;;;;5121752;28;20036;-82
2022/03/08 05:24:19;;;;;;;21.35;9.70;;;-0.80;99.90;;;;;;5122796;28;20069;-82
2022/03/08 05:26:45;;;;;;;22.55;10.35;;;-0.90;99.90;;;;;;5122389;28;20479;-82
2022/03/08 05:29:10;;;;;;;21.88;10.18;;;-0.90;99.90;;;;;;5121597;28;20470;-82
2022/03/08 05:31:36;;;;;;;21.90;10.40;;;-0.90;99.90;;;;;;5122077;28;20068;-82
2022/03/08 05:34:03;;;;;;;23.55;10.68;;;-0.90;99.90;;;;;;5122115;28;20501;-82
2022/03/08 05:36:28;;;;;;;22.23;9.88;;;-0.90;99.90;;;;;;5105107;28;20040;-82
2022/03/08 05:38:54;;;;;;;19.63;9.98;;;-0.80;99.90;;;;;;5129351;28;20039;-82
2022/03/08 05:41:20;;;;;;;21.15;10.70;;;-0.80;99.90;;;;;;5123970;28;20039;-82
2022/03/08 05:43:46;;;;;;;21.17;9.45;;;-0.90;99.90;;;;;;5123318;28;20127;-82
2022/03/08 05:46:11;;;;;;;21.75;10.77;;;-0.80;99.90;;;;;;5106423;28;20053;-82
2022/03/08 05:48:38;;;;;;;20.58;9.80;;;-0.80;99.90;;;;;;5122889;28;20126;-82
2022/03/08 05:51:04;;;;;;;23.50;10.50;;;-0.80;99.90;;;;;;5124641;28;20043;-82
2022/03/08 05:53:30;;;;;;;21.13;9.90;;;-0.80;99.90;;;;;;5105930;28;20031;-82
2022/03/08 05:55:56;;;;;;;20.48;10.68;;;-0.80;99.90;;;;;;5122869;28;20032;-82
2022/03/08 05:58:22;;;;;;;20.55;10.02;;;-0.80;99.90;;;;;;5122683;28;20539;-82
2022/03/08 06:00:47;;;;;;;21.02;9.70;;;-0.90;99.90;;;;;;5122512;28;20122;-82
2022/03/08 06:03:13;;;;;;;23.58;10.35;;;-0.80;99.90;;;;;;5121434;28;20039;-82
2022/03/08 06:05:39;;;;;;;19.50;10.18;;;-0.90;99.90;;;;;;5105386;28;20065;-82
2022/03/08 06:08:05;;;;;;;20.33;10.07;;;-0.90;99.90;;;;;;5121324;28;20051;-82
2022/03/08 06:10:31;;;;;;;21.33;10.15;;;-0.80;99.90;;;;;;5104362;28;20444;-83
2022/03/08 06:12:57;;;;;;;23.60;10.88;;;-0.80;99.90;;;;;;5122419;28;20089;-82
2022/03/08 06:15:23;;;;;;;20.40;9.98;;;-0.80;99.90;;;;;;5103578;28;20068;-83
2022/03/08 06:17:48;;;;;;;21.45;10.68;;;-0.80;99.90;;;;;;5104322;28;20355;-82
2022/03/08 06:20:14;;;;;;;21.70;10.05;;;-0.80;99.90;;;;;;5123363;28;20048;-82
2022/03/08 06:22:40;;;;;;;22.27;11.05;;;-0.80;99.90;;;;;;5122064;28;20036;-82
2022/03/08 06:25:06;;;;;;;20.90;10.15;;;-0.80;99.90;;;;;;5121837;28;20124;-82
2022/03/08 06:27:32;;;;;;;21.77;10.70;;;-0.80;99.90;;;;;;5123082;28;20067;-82
2022/03/08 06:29:58;;;;;;;23.00;10.23;;;-0.80;99.90;;;;;;5121129;28;20044;-83
2022/03/08 06:32:24;;;;;;;20.23;10.65;;;-0.80;99.90;;;;;;5121082;28;20107;-82
2022/03/08 06:34:52;;;;;;;20.98;10.35;;;-0.80;99.90;;;;;;5120995;28;20063;-82
2022/03/08 06:37:18;;;;;;;21.98;10.60;;;-0.80;99.90;;;;;;5120442;28;20122;-82
2022/03/08 06:39:45;;;;;;;20.45;10.20;;;-0.70;99.90;;;;;;5119502;28;20048;-82
2022/03/08 06:42:10;;;;;;;20.63;10.60;;;-0.70;99.90;;;;;;5121696;28;20044;-82
2022/03/08 06:44:38;;;;;;;21.50;10.65;;;-0.70;99.90;;;;;;5120713;28;20034;-82
2022/03/08 06:47:06;;;;;;;20.75;10.55;;;-0.70;99.90;;;;;;5121531;28;20067;-82
2022/03/08 06:49:32;;;;;;;22.23;10.60;;;-0.70;99.90;;;;;;5120523;28;20096;-82
2022/03/08 06:51:58;;;;;;;21.35;10.20;;;-0.60;99.90;;;;;;5120954;28;20043;-82
2022/03/08 06:54:24;;;;;;;20.15;9.82;;;-0.60;99.90;;;;;;5120884;28;20035;-82
2022/03/08 06:56:49;;;;;;;19.85;10.43;;;0.00;99.90;;;;;;5122320;28;20036;-82
2022/03/08 06:59:15;;;;;;;19.13;9.98;;;-0.50;99.90;;;;;;5102988;28;20081;-82
2022/03/08 07:01:41;;;;;;;18.52;9.13;;;-0.40;99.90;;;;;;5120357;28;20107;-82
2022/03/08 07:04:07;;;;;;;20.02;9.93;;;0.00;99.90;;;;;;5105345;28;20075;-82
2022/03/08 07:06:33;;;;;;;18.55;9.45;;;-0.20;99.90;;;;;;5128618;28;20040;-82
2022/03/08 07:08:58;;;;;;;18.67;9.73;;;-0.20;99.90;;;;;;5109852;28;20047;-82
2022/03/08 07:11:24;;;;;;;19.55;9.48;;;-0.10;99.90;;;;;;5092450;28;20420;-82
2022/03/08 07:13:50;;;;;;;15.75;9.55;;;0.00;99.90;;;;;;5105118;28;20103;-82
2022/03/08 07:16:16;;;;;;;19.33;10.10;;;0.10;99.90;;;;;;5104511;28;20079;-82
2022/03/08 07:18:42;;;;;;;18.80;10.07;;;0.10;99.90;;;;;;5086534;28;20132;-82
2022/03/08 07:21:07;;;;;;;18.20;9.63;;;0.20;99.90;;;;;;5086621;28;20109;-82
2022/03/08 07:23:33;;;;;;;18.73;10.20;;;0.20;99.90;;;;;;5104079;28;20059;-82
2022/03/08 07:25:59;;;;;;;19.50;10.02;;;0.30;99.90;;;;;;5089704;28;20052;-82
2022/03/08 07:28:25;;;;;;;19.52;9.43;;;1.00;99.90;;;;;;5085623;28;20474;-82
2022/03/08 07:30:51;;;;;;;19.70;9.85;;;0.40;99.90;;;;;;5085814;28;20045;-82
2022/03/08 07:33:17;;;;;;;20.35;9.32;;;0.40;99.90;;;;;;5104898;28;20064;-82
2022/03/08 07:35:42;;;;;;;20.30;10.57;;;0.60;99.90;;;;;;5086450;28;20039;-82
2022/03/08 07:38:08;;;;;;;19.65;10.57;;;0.60;99.90;;;;;;5086674;28;20038;-82
2022/03/08 07:40:34;;;;;;;19.02;10.25;;;0.70;99.90;;;;;;5086035;28;20097;-82
2022/03/08 07:43:02;;;;;;;19.42;9.98;;;0.80;99.90;;;;;;5120820;28;20042;-82
2022/03/08 07:45:28;;;;;;;18.15;10.27;;;0.90;99.90;;;;;;5139959;22;20055;-82
2022/03/08 07:47:54;;;;;;;18.40;9.35;;;0.90;99.90;;;;;;5123177;28;20049;-82
2022/03/08 07:50:22;;;;;;;17.88;9.63;;;1.00;99.90;;;;;;5123850;28;20129;-82
2022/03/08 07:52:48;;;;;;;18.75;9.65;;;1.10;99.90;;;;;;5140926;27;20043;-82
2022/03/08 07:55:13;;;;;;;17.55;9.48;;;1.30;99.90;;;;;;5140985;28;20043;-82
2022/03/08 07:57:39;;;;;;;16.50;9.13;;;1.30;99.90;;;;;;5145813;28;20068;-82
2022/03/08 08:00:06;;;;;;;16.08;9.27;;;1.40;99.90;;;;;;5150013;27;20598;-82
2022/03/08 08:02:32;;;;;;;15.57;9.25;;;1.50;99.90;;;;;;5140366;28;20513;-83
2022/03/08 08:04:58;;;;;;;18.25;8.75;;;1.60;99.90;;;;;;5141481;28;20031;-83
2022/03/08 08:07:23;;;;;;;17.00;8.30;;;1.70;99.90;;;;;;5141904;28;20044;-83
2022/03/08 08:09:49;;;;;;;17.42;8.63;;;1.80;99.90;;;;;;5142400;27;20032;-82
2022/03/08 08:12:15;;;;;;;16.90;9.05;;;1.90;99.90;;;;;;5141247;28;20126;-82
2022/03/08 08:14:41;;;;;;;16.27;8.85;;;2.00;99.90;;;;;;5141134;28;20041;-82
2022/03/08 08:17:07;;;;;;;17.65;9.18;;;2.20;99.90;;;;;;5142421;27;20397;-83
2022/03/08 08:19:32;;;;;;;15.35;8.45;;;2.30;99.90;;;;;;5124385;28;20035;-83
2022/03/08 08:21:58;;;;;;;13.05;7.80;;;2.40;99.90;;;;;;5141845;28;20062;-82
2022/03/08 08:24:24;;;;;;;13.68;8.43;;;2.50;99.90;;;;;;5143132;27;20042;-82
2022/03/08 08:26:49;;;;;;;13.48;8.02;;;3.10;99.90;;;;;;5142985;27;20110;-82
2022/03/08 08:29:15;;;;;;;14.80;8.35;;;2.80;99.90;;;;;;5143044;27;20497;-82
2022/03/08 08:31:41;;;;;;;14.07;7.53;;;2.90;99.90;;;;;;5141827;28;20042;-82
2022/03/08 08:34:07;;;;;;;12.68;7.53;;;3.10;99.90;;;;;;5143121;27;20039;-82
2022/03/08 08:36:32;;;;;;;16.10;8.38;;;3.20;99.90;;;;;;5141528;28;20070;-82
2022/03/08 08:38:58;;;;;;;13.80;7.65;;;3.30;99.90;;;;;;5141749;28;20043;-82
2022/03/08 08:41:23;;;;;;;11.95;7.47;;;3.90;99.90;;;;;;5142033;27;20049;-82
2022/03/08 08:43:49;;;;;;;16.80;7.60;;;3.40;99.90;;;;;;5123772;27;20039;-83
2022/03/08 08:46:15;;;;;;;14.00;7.25;;;3.50;99.90;;;;;;5110140;27;20043;-83
2022/03/08 08:48:41;;;;;;;11.25;7.07;;;3.70;99.90;;;;;;5143505;27;20031;-82
2022/03/08 08:51:06;;;;;;;13.82;7.63;;;3.80;99.90;;;;;;5144648;27;20039;-82
2022/03/08 08:53:32;;;;;;;12.35;7.68;;;3.80;99.90;;;;;;5144241;27;20039;-82
2022/03/08 08:55:58;;;;;;;14.50;7.78;;;4.20;99.90;;;;;;5142748;27;20046;-83
2022/03/08 08:58:24;;;;;;;12.50;7.43;;;4.00;99.90;;;;;;5160345;27;20524;-83
2022/03/08 09:00:49;;;;;;;12.10;7.70;;;4.10;99.90;;;;;;5143220;27;20050;-83
2022/03/08 09:03:16;;;;;;;11.93;6.97;;;4.10;99.90;;;;;;5143574;27;20035;-83
2022/03/08 09:05:45;;;;;;;12.07;6.68;;;4.30;99.90;;;;;;5165434;27;20065;-83
2022/03/08 09:08:14;;;;;;;12.30;7.30;;;4.40;99.90;;;;;;5164291;27;20074;-84
2022/03/08 09:10:40;;;;;;;10.52;6.40;;;4.50;99.90;;;;;;5144980;27;20035;-84
2022/03/08 09:13:06;;;;;;;10.73;6.65;;;4.60;99.90;;;;;;5144543;27;20050;-84
2022/03/08 09:15:32;;;;;;;14.02;7.00;;;4.70;99.90;;;;;;5164163;27;20089;-84
2022/03/08 09:17:58;;;;;;;13.57;6.90;;;4.80;99.90;;;;;;5145062;27;20473;-83
2022/03/08 09:20:26;;;;;;;10.07;6.40;;;4.90;99.90;;;;;;5145951;27;20098;-84
2022/03/08 09:22:52;;;;;;;10.52;6.03;;;5.10;99.90;;;;;;5144898;27;20038;-84
2022/03/08 09:25:18;;;;;;;9.65;5.93;;;5.20;99.90;;;;;;5163096;27;20050;-84
2022/03/08 09:27:44;;;;;;;9.98;6.05;;;5.30;99.90;;;;;;5147009;27;20030;-83
2022/03/08 09:30:11;;;;;;;9.95;5.70;;;5.50;99.90;;;;;;5146071;27;20043;-82
2022/03/08 09:32:37;;;;;;;10.73;5.93;;;5.50;99.90;;;;;;5145073;27;20039;-82
2022/03/08 09:35:04;;;;;;;11.05;6.00;;;5.60;99.90;;;;;;5127718;27;20046;-82
2022/03/08 09:37:29;;;;;;;9.13;5.18;;;5.70;99.90;;;;;;5145428;27;20529;-82
2022/03/08 09:39:55;;;;;;;8.07;5.13;;;6.00;99.90;;;;;;5128990;27;20027;-82
2022/03/08 09:42:21;;;;;;;8.10;5.32;;;6.00;99.90;;;;;;5146049;27;20082;-81
2022/03/08 09:44:48;;;;;;;11.18;5.40;;;6.10;99.90;;;;;;5165110;27;20075;-82
2022/03/08 09:47:16;;;;;;;7.97;5.18;;;6.20;99.90;;;;;;5146091;27;20106;-82
2022/03/08 09:49:42;;;;;;;9.85;5.40;;;6.20;99.90;;;;;;5128608;27;20091;-82
2022/03/08 09:52:08;;;;;;;9.68;5.75;;;6.30;99.90;;;;;;5129895;27;20038;-82
2022/03/08 09:54:33;;;;;;;7.90;5.03;;;6.50;99.90;;;;;;5165467;27;20047;-82
2022/03/08 09:56:59;;;;;;;8.25;5.20;;;6.60;99.90;;;;;;5146287;27;20448;-82
2022/03/08 09:59:29;;;;;;;7.93;5.38;;;6.60;99.90;;;;;;5128816;27;20407;-82
2022/03/08 10:01:55;;;;;;;9.02;5.35;;;6.70;99.90;;;;;;5165046;27;20038;-82
2022/03/08 10:04:21;;;;;;;9.43;4.93;;;6.70;99.90;;;;;;5146931;27;20080;-82
2022/03/08 10:06:47;;;;;;;8.40;5.40;;;6.80;99.90;;;;;;5128744;27;20034;-82
2022/03/08 10:09:15;;;;;;;8.70;5.32;;;7.10;99.90;;;;;;5128692;27;20065;-82
2022/03/08 10:11:41;;;;;;;7.07;5.00;;;7.00;99.90;;;;;;5164513;27;20133;-82
2022/03/08 10:14:12;;;;;;;9.13;5.47;;;7.30;99.90;;;;;;5144747;27;20046;-82
2022/03/08 10:16:48;;;;;;;8.07;5.60;;;7.10;99.90;;;;;;5144772;27;20071;-82
2022/03/08 10:19:14;;;;;;;7.45;5.32;;;7.60;99.90;;;;;;5127237;27;20050;-82
2022/03/08 10:21:45;;;;;;;8.65;4.57;;;7.50;99.90;;;;;;5168344;27;20485;-81
2022/03/08 10:24:26;;;;;;;7.72;5.82;;;7.30;98.30;;;;;;5153248;27;20043;-81
2022/03/08 10:26:58;;;;;;;9.52;5.10;;;7.30;97.80;;;;;;5150193;27;20070;-81
2022/03/08 10:29:32;;;;;;;7.28;4.82;;;8.00;99.80;;;;;;5145170;27;20087;-82
2022/03/08 10:32:09;;;;;;;6.50;4.82;;;7.80;97.20;;;;;;5141185;27;20043;-82
2022/03/08 10:34:38;;;;;;;6.90;4.95;;;7.50;96.20;;;;;;5157574;27;20384;-82
2022/03/08 10:37:06;;;;;;;8.80;4.95;;;7.60;96.10;;;;;;5138065;27;20063;-82
2022/03/08 10:39:32;;;;;;;7.45;4.72;;;7.70;98.50;;;;;;5156669;27;20054;-82
2022/03/08 10:41:58;;;;;;;6.82;4.82;;;7.80;95.30;;;;;;5137948;27;20392;-82
2022/03/08 10:44:36;;;;;;;8.02;5.38;;;8.40;94.40;;;;;;5138445;27;20054;-82
2022/03/08 10:47:05;;;;;;;8.30;5.00;;;7.90;92.40;;;;;;5138153;27;20053;-82
2022/03/08 10:49:32;;;;;;;8.18;4.90;;;8.00;93.60;;;;;;5138160;27;20034;-82
2022/03/08 10:52:01;;;;;;;7.28;4.70;;;8.10;93.90;;;;;;5156968;27;20035;-82
2022/03/08 10:54:28;;;;;;;7.63;4.90;;;8.20;91.90;;;;;;5121120;27;20126;-82
2022/03/08 10:56:55;;;;;;;6.43;4.35;;;8.20;89.40;;;;;;5139556;27;20090;-82
2022/03/08 10:59:21;;;;;;;6.78;4.63;;;8.30;88.00;;;;;;5138296;27;20050;-83
2022/03/08 11:01:46;;;;;;;7.15;4.63;;;8.40;87.80;;;;;;5157055;27;20034;-82
2022/03/08 11:04:21;;;;;;;9.32;5.07;;;8.40;85.40;;;;;;5138327;27;20046;-82
2022/03/08 11:06:51;;;;;;;7.53;5.05;;;8.40;84.60;;;;;;5137924;27;20039;-82
2022/03/08 11:09:22;;;;;;;7.60;4.63;;;8.50;84.80;;;;;;5156129;27;20473;-82
2022/03/08 11:11:48;;;;;;;7.75;4.68;;;8.70;86.40;;;;;;5156161;27;20035;-82
2022/03/08 11:14:14;;;;;;;7.10;5.00;;;8.80;86.20;;;;;;5137958;27;20492;-82
2022/03/08 11:16:46;;;;;;;8.50;4.90;;;8.80;82.10;;;;;;5137791;27;20103;-82
2022/03/08 11:19:12;;;;;;;6.57;4.85;;;8.90;84.20;;;;;;5155976;27;20035;-82
2022/03/08 11:21:39;;;;;;;7.18;4.43;;;8.90;83.70;;;;;;5156291;27;20396;-82
2022/03/08 11:24:05;;;;;;;7.65;5.57;;;9.10;86.20;;;;;;5137638;27;20041;-82
2022/03/08 11:26:31;;;;;;;6.75;4.60;;;9.20;84.20;;;;;;5137257;27;20366;-82
2022/03/08 11:28:57;;;;;;;7.93;4.53;;;9.20;83.10;;;;;;5137177;27;20094;-82
2022/03/08 11:31:31;;;;;;;7.40;4.60;;;9.30;80.10;;;;;;5137056;27;20047;-82
2022/03/08 11:34:41;;;;;;;6.50;4.50;;;9.80;78.50;;;;;;5136922;27;20049;-82
2022/03/08 11:37:23;;;;;;;7.45;4.72;;;9.50;80.30;;;;;;5055072;28;20040;-82
2022/03/08 11:40:11;;;;;;;8.02;4.90;;;9.60;79.20;;;;;;5059108;28;20498;-82
2022/03/08 11:42:42;;;;;;;6.28;4.20;;;9.70;77.10;;;;;;5100890;27;20049;-82
2022/03/08 11:45:20;;;;;;;6.18;4.43;;;9.60;78.00;;;;;;5136467;27;20058;-82
2022/03/08 11:47:57;;;;;;;7.78;4.43;;;9.80;76.80;;;;;;5136409;27;20059;-82
2022/03/08 11:50:27;;;;;;;6.72;4.00;;;9.90;75.50;;;;;;5137197;27;20042;-82
2022/03/08 11:53:10;;;;;;;6.07;3.95;;;10.00;76.00;;;;;;5136870;27;20039;-82
2022/03/08 11:55:39;;;;;;;5.93;3.75;;;10.10;77.10;;;;;;5136758;27;20042;-82
2022/03/08 11:58:19;;;;;;;6.07;3.67;;;10.10;74.30;;;;;;5155608;27;20035;-82
2022/03/08 12:01:00;;;;;;;6.25;3.78;;;10.10;71.90;;;;;;5136655;27;20111;-82
2022/03/08 12:03:26;;;;;;;7.20;4.03;;;10.00;71.40;;;;;;5136505;27;20477;-82
2022/03/08 12:05:57;;;;;;;6.28;4.15;;;10.10;72.40;;;;;;5137077;27;20121;-82
2022/03/08 12:08:28;;;;;;;8.52;4.20;;;10.20;72.20;;;;;;5155433;27;20557;-82
2022/03/08 12:10:58;;;;;;;9.15;4.60;;;10.30;73.90;;;;;;5155720;27;20087;-82
2022/03/08 12:13:27;;;;;;;5.75;4.20;;;10.50;75.20;;;;;;5136790;27;20507;-82
2022/03/08 12:16:08;;;;;;;6.53;4.20;;;10.40;71.20;;;;;;5136989;27;20037;-82
2022/03/08 12:18:46;;;;;;;6.55;3.97;;;10.50;71.10;;;;;;5155315;27;20039;-82
2022/03/08 12:21:14;;;;;;;8.05;4.18;;;10.50;69.90;;;;;;5136454;27;20047;-82
2022/03/08 12:23:49;;;;;;;6.20;4.00;;;10.70;72.00;;;;;;5155337;27;20393;-82
2022/03/08 12:26:32;;;;;;;6.17;4.20;;;10.80;70.70;;;;;;5155364;27;20030;-82
2022/03/08 12:29:06;;;;;;;6.90;4.18;;;11.00;67.70;;;;;;5136589;27;20042;-82
2022/03/08 12:31:53;;;;;;;6.95;4.03;;;11.20;66.90;;;;;;5136556;27;20061;-82
2022/03/08 12:34:19;;;;;;;6.57;4.22;;;11.40;69.70;;;;;;5070943;28;20147;-82
2022/03/08 12:37:05;;;;;;;7.05;4.30;;;11.50;68.50;;;;;;5071169;28;20168;-82
2022/03/08 12:39:45;;;;;;;6.70;3.75;;;11.50;66.90;;;;;;5073645;28;20090;-82
2022/03/08 12:42:21;;;;;;;16.80;5.38;;;11.70;65.40;;;;;;5058389;28;20056;-82
2022/03/08 12:45:00;;;;;;;5.95;3.90;;;11.70;62.80;;;;;;5057629;28;20177;-82